createdAt,value
2018-12-21T00:02:19.597Z,4.80
2018-12-21T00:04:47.843Z,4.80
2018-12-21T00:07:16.015Z,4.80
2018-12-21T00:09:44.275Z,4.80
2018-12-21T00:12:12.737Z,4.80
2018-12-21T00:14:40.951Z,4.80
2018-12-21T00:17:09.183Z,4.80
2018-12-21T00:19:37.420Z,4.80
2018-12-21T00:22:06.692Z,4.80
2018-12-21T00:24:34.939Z,4.70
2018-12-21T00:27:03.268Z,4.70
2018-12-21T00:29:31.621Z,4.60
2018-12-21T00:32:05.129Z,4.60
2018-12-21T00:34:38.709Z,4.50
2018-12-21T00:37:12.385Z,4.50
2018-12-21T00:39:45.957Z,4.40
2018-12-21T00:42:19.554Z,4.40
2018-12-21T00:44:49.743Z,4.40
2018-12-21T00:47:18.353Z,4.30
2018-12-21T00:49:46.579Z,4.30
2018-12-21T00:52:14.813Z,4.20
2018-12-21T00:54:43.041Z,4.20
2018-12-21T00:57:11.213Z,4.20
2018-12-21T00:59:39.609Z,4.10
2018-12-21T01:02:07.905Z,4.10
2018-12-21T01:04:36.107Z,4.00
2018-12-21T01:07:04.406Z,4.00
2018-12-21T01:09:32.805Z,4.00
2018-12-21T01:12:01.433Z,4.00
2018-12-21T01:14:29.646Z,4.10
2018-12-21T01:16:58.025Z,4.20
2018-12-21T01:19:26.348Z,4.20
2018-12-21T01:21:54.742Z,4.20
2018-12-21T01:24:23.001Z,4.30
2018-12-21T01:26:51.425Z,4.30
2018-12-21T01:29:19.629Z,4.40
2018-12-21T01:31:48.098Z,4.50
2018-12-21T01:34:16.279Z,4.50
2018-12-21T01:36:44.641Z,4.50
2018-12-21T01:39:12.814Z,4.50
2018-12-21T01:41:41.048Z,4.60
2018-12-21T01:44:09.401Z,4.60
2018-12-21T01:46:37.648Z,4.60
2018-12-21T01:49:05.901Z,4.60
2018-12-21T01:51:34.213Z,4.60
2018-12-21T01:54:02.481Z,4.70
2018-12-21T01:56:30.769Z,4.70
2018-12-21T01:58:59.131Z,4.70
2018-12-21T02:01:27.394Z,4.70
2018-12-21T02:03:55.826Z,4.70
2018-12-21T02:06:24.142Z,4.80
2018-12-21T02:08:52.477Z,4.80
2018-12-21T02:11:20.640Z,4.80
2018-12-21T02:13:48.832Z,4.80
2018-12-21T02:16:17.128Z,4.80
2018-12-21T02:18:45.426Z,4.90
2018-12-21T02:21:13.760Z,4.90
2018-12-21T02:23:41.961Z,5.00
2018-12-21T02:26:10.138Z,5.00
2018-12-21T02:28:38.330Z,5.00
2018-12-21T02:31:06.586Z,5.00
2018-12-21T02:33:34.820Z,5.10
2018-12-21T02:36:03.015Z,5.10
2018-12-21T02:38:31.257Z,5.10
2018-12-21T02:40:59.629Z,5.10
2018-12-21T02:43:27.866Z,5.20
2018-12-21T02:45:56.239Z,5.10
2018-12-21T02:48:24.519Z,5.20
2018-12-21T02:50:52.693Z,5.20
2018-12-21T02:53:20.905Z,5.20
2018-12-21T02:55:49.181Z,5.20
2018-12-21T02:58:17.525Z,5.30
2018-12-21T03:00:45.691Z,5.20
2018-12-21T03:03:14.038Z,5.30
2018-12-21T03:05:42.329Z,5.30
2018-12-21T03:08:10.717Z,5.30
2018-12-21T03:10:39.079Z,5.30
2018-12-21T03:13:07.451Z,5.30
2018-12-21T03:15:35.808Z,5.30
2018-12-21T03:18:04.243Z,5.30
2018-12-21T03:20:32.522Z,5.20
2018-12-21T03:23:00.978Z,5.20
2018-12-21T03:25:29.337Z,5.20
2018-12-21T03:27:57.745Z,5.20
2018-12-21T03:30:26.331Z,5.10
2018-12-21T03:32:54.663Z,5.10
2018-12-21T03:35:24.257Z,5.10
2018-12-21T03:37:52.860Z,5.10
2018-12-21T03:40:21.133Z,5.10
2018-12-21T03:42:49.602Z,5.10
2018-12-21T03:45:18.197Z,5.10
2018-12-21T03:47:46.468Z,5.10
2018-12-21T03:50:14.982Z,5.10
2018-12-21T03:52:43.267Z,5.10
2018-12-21T03:55:11.740Z,5.00
2018-12-21T03:57:40.346Z,5.10
2018-12-21T04:00:09.014Z,5.10
2018-12-21T04:02:37.552Z,5.10
2018-12-21T04:05:05.821Z,5.10
2018-12-21T04:07:34.048Z,5.10
2018-12-21T04:10:02.261Z,5.10
2018-12-21T04:12:30.494Z,5.10
2018-12-21T04:14:58.684Z,5.10
2018-12-21T04:17:26.860Z,5.10
2018-12-21T04:19:55.078Z,5.10
2018-12-21T04:22:23.445Z,5.10
2018-12-21T04:24:51.666Z,5.10
2018-12-21T04:27:19.950Z,5.10
2018-12-21T04:29:48.144Z,5.10
2018-12-21T04:32:16.375Z,5.20
2018-12-21T04:34:44.652Z,5.20
2018-12-21T04:37:12.882Z,5.10
2018-12-21T04:39:41.170Z,5.10
2018-12-21T04:42:09.340Z,5.20
2018-12-21T04:44:37.556Z,5.20
2018-12-21T04:47:05.834Z,5.20
2018-12-21T04:49:34.032Z,5.20
2018-12-21T04:52:02.285Z,5.20
2018-12-21T04:54:30.528Z,5.20
2018-12-21T04:56:58.971Z,5.10
2018-12-21T04:59:27.277Z,5.20
2018-12-21T05:01:55.543Z,5.10
2018-12-21T05:04:23.927Z,5.10
2018-12-21T05:06:52.269Z,5.20
2018-12-21T05:09:20.482Z,5.20
2018-12-21T05:11:48.792Z,5.20
2018-12-21T05:14:17.092Z,5.20
2018-12-21T05:16:45.360Z,5.20
2018-12-21T05:19:13.582Z,5.20
2018-12-21T05:21:41.862Z,5.20
2018-12-21T05:24:10.182Z,5.20
2018-12-21T05:26:38.377Z,5.10
2018-12-21T05:29:06.583Z,5.20
2018-12-21T05:31:34.855Z,5.20
2018-12-21T05:34:03.061Z,5.20
2018-12-21T05:36:31.301Z,5.20
2018-12-21T05:38:59.511Z,5.20
2018-12-21T05:41:27.787Z,5.20
2018-12-21T05:43:56.005Z,5.20
2018-12-21T05:46:24.240Z,5.20
2018-12-21T05:48:52.583Z,5.20
2018-12-21T05:51:20.864Z,5.20
2018-12-21T05:53:55.752Z,5.20
2018-12-21T05:56:23.929Z,5.20
2018-12-21T05:58:52.113Z,5.20
2018-12-21T06:01:20.453Z,5.20
2018-12-21T06:03:48.732Z,5.20
2018-12-21T06:06:17.033Z,5.20
2018-12-21T06:08:45.277Z,5.20
2018-12-21T06:11:13.488Z,5.20
2018-12-21T06:13:41.704Z,5.20
2018-12-21T06:16:09.918Z,5.20
2018-12-21T06:18:44.672Z,5.30
2018-12-21T06:21:12.973Z,5.30
2018-12-21T06:23:41.118Z,5.30
2018-12-21T06:26:09.329Z,5.30
2018-12-21T06:28:37.513Z,5.30
2018-12-21T06:31:05.769Z,5.30
2018-12-21T06:33:34.053Z,5.30
2018-12-21T06:36:02.300Z,5.30
2018-12-21T06:38:30.637Z,5.40
2018-12-21T06:40:58.949Z,5.40
2018-12-21T06:43:27.209Z,5.40
2018-12-21T06:45:59.065Z,5.40
2018-12-21T06:48:27.249Z,5.40
2018-12-21T06:50:55.472Z,5.40
2018-12-21T06:53:23.783Z,5.40
2018-12-21T06:55:52.123Z,5.40
2018-12-21T06:58:20.528Z,5.40
2018-12-21T07:00:48.851Z,5.40
2018-12-21T07:03:17.485Z,5.40
2018-12-21T07:05:45.823Z,5.40
2018-12-21T07:08:14.089Z,5.40
2018-12-21T07:10:42.374Z,5.40
2018-12-21T07:13:10.735Z,5.40
2018-12-21T07:15:39.057Z,5.30
2018-12-21T07:18:07.483Z,5.40
2018-12-21T07:20:35.717Z,5.40
2018-12-21T07:23:04.053Z,5.40
2018-12-21T07:25:32.398Z,5.40
2018-12-21T07:28:00.697Z,5.40
2018-12-21T07:30:28.987Z,5.40
2018-12-21T07:32:57.303Z,5.30
2018-12-21T07:35:25.581Z,5.30
2018-12-21T07:37:53.833Z,5.30
2018-12-21T07:40:22.149Z,5.30
2018-12-21T07:42:50.379Z,5.30
2018-12-21T07:45:18.685Z,5.30
2018-12-21T07:47:46.910Z,5.20
2018-12-21T07:50:15.309Z,5.20
2018-12-21T07:52:43.647Z,5.20
2018-12-21T07:55:11.939Z,5.20
2018-12-21T07:57:40.113Z,5.20
2018-12-21T08:00:10.889Z,5.20
2018-12-21T08:02:39.205Z,5.20
2018-12-21T08:05:08.175Z,5.30
2018-12-21T08:07:36.541Z,5.30
2018-12-21T08:10:09.141Z,5.30
2018-12-21T08:12:37.415Z,5.30
2018-12-21T08:15:05.785Z,5.30
2018-12-21T08:17:34.167Z,5.40
2018-12-21T08:20:02.417Z,5.40
2018-12-21T08:22:30.636Z,5.40
2018-12-21T08:24:58.804Z,5.40
2018-12-21T08:27:26.983Z,5.40
2018-12-21T08:29:55.261Z,5.40
2018-12-21T08:32:23.620Z,5.40
2018-12-21T08:34:52.056Z,5.40
2018-12-21T08:37:20.302Z,5.40
2018-12-21T08:39:48.569Z,5.40
2018-12-21T08:42:16.727Z,5.40
2018-12-21T08:44:45.026Z,5.40
2018-12-21T08:47:13.335Z,5.40
2018-12-21T08:49:41.569Z,5.40
2018-12-21T08:52:09.783Z,5.40
2018-12-21T08:54:37.985Z,5.40
2018-12-21T08:57:06.249Z,5.50
2018-12-21T08:59:34.468Z,5.50
2018-12-21T09:02:02.782Z,5.50
2018-12-21T09:04:32.311Z,5.50
2018-12-21T09:07:00.939Z,5.50
2018-12-21T09:09:29.153Z,5.60
2018-12-21T09:11:57.443Z,5.60
2018-12-21T09:14:25.721Z,5.60
2018-12-21T09:16:54.303Z,5.60
2018-12-21T09:19:22.559Z,5.70
2018-12-21T09:21:50.751Z,5.70
2018-12-21T09:24:19.018Z,5.70
2018-12-21T09:26:47.301Z,5.80
2018-12-21T09:29:15.590Z,5.80
2018-12-21T09:31:43.831Z,5.90
2018-12-21T09:34:12.015Z,5.90
2018-12-21T09:36:40.321Z,5.90
2018-12-21T09:39:08.609Z,5.90
2018-12-21T09:41:36.743Z,5.90
2018-12-21T09:44:05.090Z,6.00
2018-12-21T09:46:33.328Z,6.00
2018-12-21T09:49:01.536Z,6.10
2018-12-21T09:51:29.855Z,6.10
2018-12-21T09:53:58.098Z,6.10
2018-12-21T09:56:26.375Z,6.10
2018-12-21T09:58:54.622Z,6.10
2018-12-21T10:01:22.949Z,6.20
2018-12-21T10:03:52.119Z,6.20
2018-12-21T10:06:20.477Z,6.20
2018-12-21T10:08:48.709Z,6.30
2018-12-21T10:11:17.121Z,6.30
2018-12-21T10:13:45.379Z,6.30
2018-12-21T10:16:13.599Z,6.30
2018-12-21T10:18:41.969Z,6.30
2018-12-21T10:21:10.329Z,6.40
2018-12-21T10:23:38.640Z,6.40
2018-12-21T10:26:06.907Z,6.40
2018-12-21T10:28:35.121Z,6.40
2018-12-21T10:31:03.483Z,6.40
2018-12-21T10:33:31.724Z,6.50
2018-12-21T10:35:59.965Z,6.50
2018-12-21T10:38:28.363Z,6.60
2018-12-21T10:40:56.642Z,6.50
2018-12-21T10:43:24.912Z,6.50
2018-12-21T10:45:53.169Z,6.60
2018-12-21T10:48:21.397Z,6.60
2018-12-21T10:50:49.673Z,6.60
2018-12-21T10:53:17.907Z,6.60
2018-12-21T10:55:46.326Z,6.60
2018-12-21T10:58:14.554Z,6.70
2018-12-21T11:00:42.748Z,6.70
2018-12-21T11:03:10.955Z,6.70
2018-12-21T11:05:39.147Z,6.70
2018-12-21T11:08:07.477Z,6.70
2018-12-21T11:10:35.731Z,6.70
2018-12-21T11:13:04.043Z,6.70
2018-12-21T11:15:32.293Z,6.70
2018-12-21T11:18:00.561Z,6.70
2018-12-21T11:20:28.859Z,6.70
2018-12-21T11:22:57.154Z,6.80
2018-12-21T11:25:25.371Z,6.70
2018-12-21T11:27:53.665Z,6.70
2018-12-21T11:30:21.897Z,6.80
2018-12-21T11:32:50.179Z,6.80
2018-12-21T11:35:18.351Z,6.70
2018-12-21T11:37:46.630Z,6.70
2018-12-21T11:40:14.885Z,6.70
2018-12-21T11:42:43.022Z,6.70
2018-12-21T11:45:11.319Z,6.70
2018-12-21T11:47:39.590Z,6.70
2018-12-21T11:50:10.090Z,6.70
2018-12-21T11:52:38.402Z,6.60
2018-12-21T11:55:06.715Z,6.60
2018-12-21T11:57:34.994Z,6.60
2018-12-21T12:00:03.371Z,6.60
2018-12-21T12:02:31.536Z,6.60
2018-12-21T12:04:59.766Z,6.50
2018-12-21T12:07:28.126Z,6.60
2018-12-21T12:09:56.468Z,6.50
2018-12-21T12:12:24.692Z,6.60
2018-12-21T12:14:52.974Z,6.60
2018-12-21T12:17:21.370Z,6.50
2018-12-21T12:19:49.568Z,6.50
2018-12-21T12:22:17.870Z,6.60
2018-12-21T12:24:52.794Z,6.60
2018-12-21T12:27:16.541Z,6.60
2018-12-21T12:29:44.782Z,6.50
2018-12-21T12:32:13.630Z,6.60
2018-12-21T12:34:42.698Z,6.50
2018-12-21T12:37:11.000Z,6.50
2018-12-21T12:39:39.272Z,6.50
2018-12-21T12:42:07.733Z,6.40
2018-12-21T12:44:36.048Z,6.40
2018-12-21T12:47:04.540Z,6.40
2018-12-21T12:49:32.734Z,6.30
2018-12-21T12:52:01.611Z,6.40
2018-12-21T12:54:30.120Z,6.30
2018-12-21T12:56:58.597Z,6.30
2018-12-21T12:59:27.920Z,6.30
2018-12-21T13:01:58.420Z,6.20
2018-12-21T13:04:26.731Z,6.30
2018-12-21T13:06:55.134Z,6.20
2018-12-21T13:09:23.496Z,6.20
2018-12-21T13:14:39.611Z,6.20
2018-12-21T13:17:10.001Z,6.20
2018-12-21T13:19:38.389Z,6.20
2018-12-21T13:22:06.972Z,6.20
2018-12-21T13:24:35.389Z,6.30
2018-12-21T13:27:05.233Z,6.30
2018-12-21T13:29:35.885Z,6.30
2018-12-21T13:32:05.952Z,6.20
2018-12-21T13:34:34.381Z,6.30
2018-12-21T13:37:03.070Z,6.30
2018-12-21T13:39:31.523Z,6.30
2018-12-21T13:42:02.704Z,6.30
2018-12-21T13:44:31.439Z,6.30
2018-12-21T13:47:01.531Z,6.30
2018-12-21T13:54:59.770Z,6.30
2018-12-21T13:57:28.280Z,6.30
2018-12-21T13:59:56.812Z,6.30
2018-12-21T14:02:25.267Z,6.40
2018-12-21T14:04:55.102Z,6.30
2018-12-21T14:07:24.685Z,6.30
2018-12-21T14:09:53.529Z,6.30
2018-12-21T14:12:22.813Z,6.40
2018-12-21T14:14:51.325Z,6.40
2018-12-21T14:17:20.028Z,6.40
2018-12-21T14:19:48.524Z,6.40
2018-12-21T14:22:17.123Z,6.30
2018-12-21T14:24:46.833Z,6.40
2018-12-21T14:27:15.323Z,6.30
2018-12-21T14:29:44.113Z,6.30
2018-12-21T14:37:39.725Z,6.20
2018-12-21T14:40:09.669Z,6.20
2018-12-21T14:42:38.351Z,6.20
2018-12-21T14:45:08.573Z,6.20
2018-12-21T14:47:36.907Z,6.20
2018-12-21T14:50:06.513Z,6.20
2018-12-21T14:52:35.000Z,6.20
2018-12-21T14:55:04.348Z,6.20
2018-12-21T14:57:32.929Z,6.10
2018-12-21T15:05:41.357Z,6.10
2018-12-21T15:08:10.118Z,6.20
2018-12-21T15:10:38.442Z,6.20
2018-12-21T15:13:06.838Z,6.20
2018-12-21T15:15:35.292Z,6.20
2018-12-21T15:18:03.914Z,6.20
2018-12-21T15:20:32.312Z,6.10
2018-12-21T15:23:00.740Z,6.10
2018-12-21T15:25:29.294Z,6.10
2018-12-21T15:27:57.640Z,6.10
2018-12-21T15:30:26.371Z,6.10
2018-12-21T15:32:54.881Z,6.10
2018-12-21T15:35:23.778Z,6.10
2018-12-21T15:37:52.369Z,6.10
2018-12-21T15:40:20.748Z,6.10
2018-12-21T15:42:49.034Z,6.10
2018-12-21T15:45:17.474Z,6.10
2018-12-21T15:47:46.026Z,6.20
2018-12-21T15:50:14.477Z,6.20
2018-12-21T15:52:43.189Z,6.10
2018-12-21T15:55:11.492Z,6.20
2018-12-21T15:57:39.774Z,6.20
2018-12-21T16:00:11.328Z,6.20
2018-12-21T16:02:42.036Z,6.20
2018-12-21T16:05:11.738Z,6.20
2018-12-21T16:07:40.013Z,6.20
2018-12-21T16:10:09.885Z,6.20
2018-12-21T16:12:38.202Z,6.20
2018-12-21T16:15:06.689Z,6.20
2018-12-21T16:17:35.029Z,6.20
2018-12-21T16:20:03.482Z,6.20
2018-12-21T16:22:31.750Z,6.30
2018-12-21T16:24:59.967Z,6.30
2018-12-21T16:27:28.317Z,6.30
2018-12-21T16:29:56.537Z,6.30
2018-12-21T16:32:24.785Z,6.30
2018-12-21T16:34:53.360Z,6.30
2018-12-21T16:37:21.761Z,6.30
2018-12-21T16:39:49.958Z,6.30
2018-12-21T16:42:18.152Z,6.30
2018-12-21T16:44:46.379Z,6.30
2018-12-21T16:47:14.599Z,6.40
2018-12-21T16:49:43.015Z,6.30
2018-12-21T16:52:11.236Z,6.40
2018-12-21T16:54:39.501Z,6.40
2018-12-21T16:57:07.843Z,6.40
2018-12-21T16:59:36.099Z,6.40
2018-12-21T17:02:04.451Z,6.50
2018-12-21T17:04:32.743Z,6.50
2018-12-21T17:07:00.951Z,6.50
2018-12-21T17:09:29.289Z,6.50
2018-12-21T17:11:57.567Z,6.50
2018-12-21T17:14:25.811Z,6.50
2018-12-21T17:16:54.138Z,6.50
2018-12-21T17:19:22.959Z,6.50
2018-12-21T17:21:53.231Z,6.50
2018-12-21T17:24:21.715Z,6.50
2018-12-21T17:26:50.845Z,6.50
2018-12-21T17:29:19.061Z,6.50
2018-12-21T17:31:47.470Z,6.50
2018-12-21T17:34:15.815Z,6.50
2018-12-21T17:36:44.261Z,6.60
2018-12-21T17:39:12.721Z,6.60
2018-12-21T17:41:41.219Z,6.60
2018-12-21T17:44:09.516Z,6.60
2018-12-21T17:46:37.927Z,6.70
2018-12-21T17:49:06.166Z,6.70
2018-12-21T17:51:34.436Z,6.80
2018-12-21T17:54:04.768Z,6.80
2018-12-21T17:56:33.395Z,6.90
2018-12-21T17:59:01.753Z,7.00
2018-12-21T18:01:31.123Z,7.00
2018-12-21T18:04:05.643Z,7.10
2018-12-21T18:06:33.968Z,7.10
2018-12-21T18:09:02.251Z,7.20
2018-12-21T18:11:30.520Z,7.20
2018-12-21T18:13:58.729Z,7.30
2018-12-21T18:16:27.082Z,7.30
2018-12-21T18:18:55.315Z,7.40
2018-12-21T18:21:23.932Z,7.40
2018-12-21T18:23:52.315Z,7.50
2018-12-21T18:26:20.616Z,7.50
2018-12-21T18:28:48.868Z,7.60
2018-12-21T18:31:40.990Z,7.60
2018-12-21T18:34:11.966Z,7.70
2018-12-21T18:36:40.198Z,7.80
2018-12-21T18:39:08.405Z,7.90
2018-12-21T18:41:36.728Z,7.90
2018-12-21T18:44:05.018Z,7.90
2018-12-21T18:46:33.203Z,8.00
2018-12-21T18:49:01.532Z,8.00
2018-12-21T18:51:29.802Z,8.00
2018-12-21T18:53:58.042Z,8.00
2018-12-21T18:56:28.232Z,8.10
2018-12-21T18:58:56.478Z,8.10
2018-12-21T19:01:24.770Z,8.20
2018-12-21T19:03:53.015Z,8.20
2018-12-21T19:06:21.297Z,8.30
2018-12-21T19:08:49.549Z,8.30
2018-12-21T19:11:17.836Z,8.40
2018-12-21T19:13:46.035Z,8.50
2018-12-21T19:16:14.308Z,8.50
2018-12-21T19:18:42.570Z,8.60
2018-12-21T19:21:10.924Z,8.60
2018-12-21T19:23:39.115Z,8.70
2018-12-21T19:26:07.384Z,8.70
2018-12-21T19:28:35.575Z,8.70
2018-12-21T19:31:03.869Z,8.70
2018-12-21T19:33:32.197Z,8.70
2018-12-21T19:36:00.363Z,8.70
2018-12-21T19:38:28.592Z,8.70
2018-12-21T19:40:56.975Z,8.70
2018-12-21T19:43:28.305Z,8.70
2018-12-21T19:45:55.509Z,8.70
2018-12-21T19:48:23.735Z,8.70
2018-12-21T19:50:51.962Z,8.70
2018-12-21T19:53:20.193Z,8.60
2018-12-21T19:55:55.119Z,8.60
2018-12-21T19:58:23.420Z,8.60
2018-12-21T20:00:51.792Z,8.60
2018-12-21T20:03:20.714Z,8.60
2018-12-21T20:05:49.009Z,8.60
2018-12-21T20:08:17.546Z,8.70
2018-12-21T20:10:45.723Z,8.70
2018-12-21T20:13:14.198Z,8.60
2018-12-21T20:15:42.706Z,8.70
2018-12-21T20:18:10.902Z,8.80
2018-12-21T20:20:39.330Z,8.90
2018-12-21T20:23:07.596Z,8.90
2018-12-21T20:25:36.720Z,8.90
2018-12-21T20:28:04.900Z,8.90
2018-12-21T20:30:33.282Z,8.80
2018-12-21T20:33:01.627Z,8.90
2018-12-21T20:35:29.867Z,8.90
2018-12-21T20:37:58.362Z,8.90
2018-12-21T20:40:26.820Z,9.00
2018-12-21T20:42:55.083Z,9.10
2018-12-21T20:45:23.390Z,9.10
2018-12-21T20:47:51.634Z,9.10
2018-12-21T20:50:19.862Z,9.10
2018-12-21T20:52:48.046Z,9.20
2018-12-21T20:55:16.506Z,9.20
2018-12-21T20:57:47.406Z,9.30
2018-12-21T21:00:16.241Z,9.30
2018-12-21T21:02:45.066Z,9.40
2018-12-21T21:05:13.798Z,9.30
2018-12-21T21:07:42.768Z,9.30
2018-12-21T21:10:12.430Z,9.30
2018-12-21T21:12:41.239Z,9.40
2018-12-21T21:15:11.262Z,9.40
2018-12-21T21:17:39.552Z,9.50
2018-12-21T21:20:10.889Z,9.50
2018-12-21T21:22:39.322Z,9.70
2018-12-21T21:25:07.703Z,9.80
2018-12-21T21:27:35.899Z,9.90
2018-12-21T21:30:05.894Z,9.90
2018-12-21T21:32:34.093Z,9.90
2018-12-21T21:35:02.426Z,9.90
2018-12-21T21:37:30.721Z,10.00
2018-12-21T21:39:58.951Z,10.00
2018-12-21T21:42:27.181Z,10.10
2018-12-21T21:44:55.389Z,10.00
2018-12-21T21:47:23.634Z,10.00
2018-12-21T21:49:51.918Z,10.00
2018-12-21T21:52:20.206Z,10.10
2018-12-21T21:55:05.561Z,10.10
2018-12-21T21:57:39.249Z,10.20
2018-12-21T22:00:08.023Z,10.30
2018-12-21T22:02:37.895Z,10.30
2018-12-21T22:05:09.024Z,10.20
2018-12-21T22:07:37.284Z,10.20
2018-12-21T22:10:08.751Z,10.20
2018-12-21T22:12:37.117Z,10.30
2018-12-21T22:15:06.304Z,10.30
2018-12-21T22:17:34.668Z,10.30
2018-12-21T22:20:02.953Z,10.10
2018-12-21T22:22:31.233Z,10.10
2018-12-21T22:24:59.557Z,10.10
2018-12-21T22:27:28.085Z,10.10
2018-12-21T22:32:38.939Z,10.10
2018-12-21T22:35:07.901Z,10.00
2018-12-21T22:37:38.542Z,9.90
2018-12-21T22:40:14.849Z,9.90
2018-12-21T22:42:43.191Z,9.80
2018-12-21T22:45:11.418Z,9.80
2018-12-21T22:47:39.723Z,9.70
2018-12-21T22:50:08.958Z,9.60
2018-12-21T22:52:37.662Z,9.40
2018-12-21T22:55:07.252Z,9.30
2018-12-21T22:57:35.714Z,9.20
2018-12-21T23:00:07.618Z,9.10
2018-12-21T23:02:35.892Z,9.10
2018-12-21T23:05:04.410Z,9.00
2018-12-21T23:07:32.640Z,8.90
2018-12-21T23:10:00.904Z,8.90
2018-12-21T23:12:29.266Z,8.90
2018-12-21T23:14:57.849Z,8.90
2018-12-21T23:17:26.093Z,8.90
2018-12-21T23:19:54.405Z,8.90
2018-12-21T23:22:22.639Z,8.90
2018-12-21T23:24:50.853Z,9.00
2018-12-21T23:27:19.038Z,9.00
2018-12-21T23:29:47.404Z,9.00
2018-12-21T23:32:15.580Z,8.90
2018-12-21T23:34:43.923Z,8.90
2018-12-21T23:37:12.193Z,8.90
2018-12-21T23:39:40.396Z,8.90
2018-12-21T23:42:08.582Z,8.90
2018-12-21T23:44:36.884Z,9.00
2018-12-21T23:47:05.103Z,9.00
2018-12-21T23:49:33.400Z,9.20
2018-12-21T23:52:01.589Z,9.10
2018-12-21T23:54:29.896Z,9.10
2018-12-21T23:56:58.199Z,9.10
2018-12-21T23:59:26.381Z,9.10
